KRIL/RIL METAR and TAF weather

Enter ICAO airport designator
Station Type Date Time Source
KRIL METAR 2022/09/26 07:53 UTC NOAA

KRIL 260753Z AUTO 00000KT 10SM CLR 09/02 A3034 RMK AO2 SLP220 T00940022


Station Type Date Time Source
KRIL Decoded METAR 2022/09/26 07:53 UTC NOAA

RIFLE GARFIELD COUNTY RGNL, CO, United States (KRIL) 39-31N 107-44W 1678M
Sep 26, 2022 - 03:53 AM EDT / 2022.09.26 0753 UTC
Wind: Calm:0
Visibility: 10 mile(s):0
Sky conditions: clear
Temperature: 48.9 F (9.4 C)
Dew Point: 36.0 F (2.2 C)
Relative Humidity: 60%
Pressure (altimeter): 30.34 in. Hg (1027 hPa)
ob: KRIL 260753Z AUTO 00000KT 10SM CLR 09/02 A3034 RMK AO2 SLP220 T00940022
cycle: 8

Station Type Date Time Source
KRIL TAF 2022/09/26 06:22 UTC NOAA

TAF KRIL 260520Z 2606/2706 11004KT P6SM SKC
FM262000 28007KT P6SM SKC
FM270300 14004KT P6SM SKC

Example: see airport list